sensor_id;sensor_type;location;lat;lon;timestamp;P1;durP1;ratioP1;P2;durP2;ratioP2
9052;SDS011;4561;47.450;7.516;2024-03-08T00:02:57;46.53;;;34.73;;
9052;SDS011;4561;47.450;7.516;2024-03-08T00:06:18;48.23;;;34.90;;
9052;SDS011;4561;47.450;7.516;2024-03-08T00:09:39;45.33;;;34.57;;
9052;SDS011;4561;47.450;7.516;2024-03-08T00:12:59;48.70;;;34.23;;
9052;SDS011;4561;47.450;7.516;2024-03-08T00:16:20;44.60;;;33.10;;
9052;SDS011;4561;47.450;7.516;2024-03-08T00:19:40;46.60;;;32.90;;
9052;SDS011;4561;47.450;7.516;2024-03-08T00:23:01;41.93;;;32.13;;
9052;SDS011;4561;47.450;7.516;2024-03-08T00:26:21;45.20;;;33.03;;
9052;SDS011;4561;47.450;7.516;2024-03-08T00:29:42;44.10;;;32.30;;
9052;SDS011;4561;47.450;7.516;2024-03-08T00:33:02;43.37;;;31.23;;
9052;SDS011;4561;47.450;7.516;2024-03-08T00:36:23;46.50;;;33.10;;
9052;SDS011;4561;47.450;7.516;2024-03-08T00:39:43;45.17;;;32.20;;
9052;SDS011;4561;47.450;7.516;2024-03-08T00:43:06;47.70;;;33.73;;
9052;SDS011;4561;47.450;7.516;2024-03-08T00:46:26;42.67;;;30.80;;
9052;SDS011;4561;47.450;7.516;2024-03-08T00:49:48;43.30;;;31.87;;
9052;SDS011;4561;47.450;7.516;2024-03-08T00:53:11;43.83;;;31.53;;
9052;SDS011;4561;47.450;7.516;2024-03-08T00:56:32;44.97;;;31.83;;
9052;SDS011;4561;47.450;7.516;2024-03-08T00:59:53;42.73;;;31.63;;
9052;SDS011;4561;47.450;7.516;2024-03-08T01:03:14;41.60;;;30.10;;
9052;SDS011;4561;47.450;7.516;2024-03-08T01:06:37;40.83;;;29.90;;
9052;SDS011;4561;47.450;7.516;2024-03-08T01:10:02;38.53;;;28.10;;
9052;SDS011;4561;47.450;7.516;2024-03-08T01:13:23;34.23;;;25.23;;
9052;SDS011;4561;47.450;7.516;2024-03-08T01:16:46;38.10;;;26.93;;
9052;SDS011;4561;47.450;7.516;2024-03-08T01:20:06;36.63;;;27.23;;
9052;SDS011;4561;47.450;7.516;2024-03-08T01:23:27;35.97;;;27.13;;
9052;SDS011;4561;47.450;7.516;2024-03-08T01:26:49;34.70;;;25.83;;
9052;SDS011;4561;47.450;7.516;2024-03-08T01:30:09;39.83;;;28.33;;
9052;SDS011;4561;47.450;7.516;2024-03-08T01:33:30;37.33;;;28.60;;
9052;SDS011;4561;47.450;7.516;2024-03-08T01:36:51;40.93;;;31.17;;
9052;SDS011;4561;47.450;7.516;2024-03-08T01:40:11;43.90;;;32.10;;
9052;SDS011;4561;47.450;7.516;2024-03-08T01:43:32;44.70;;;32.57;;
9052;SDS011;4561;47.450;7.516;2024-03-08T01:46:52;45.77;;;33.37;;
9052;SDS011;4561;47.450;7.516;2024-03-08T01:50:13;46.67;;;34.17;;
9052;SDS011;4561;47.450;7.516;2024-03-08T01:53:34;44.97;;;33.83;;
9052;SDS011;4561;47.450;7.516;2024-03-08T01:56:54;50.43;;;33.47;;
9052;SDS011;4561;47.450;7.516;2024-03-08T02:00:15;50.77;;;35.03;;
9052;SDS011;4561;47.450;7.516;2024-03-08T02:03:36;49.30;;;34.73;;
9052;SDS011;4561;47.450;7.516;2024-03-08T02:06:56;49.77;;;34.77;;
9052;SDS011;4561;47.450;7.516;2024-03-08T02:10:20;49.53;;;35.80;;
9052;SDS011;4561;47.450;7.516;2024-03-08T02:13:42;47.00;;;34.07;;
9052;SDS011;4561;47.450;7.516;2024-03-08T02:17:02;48.27;;;35.60;;
9052;SDS011;4561;47.450;7.516;2024-03-08T02:20:22;48.03;;;34.33;;
9052;SDS011;4561;47.450;7.516;2024-03-08T02:23:43;49.53;;;35.87;;
9052;SDS011;4561;47.450;7.516;2024-03-08T02:27:04;49.93;;;35.47;;
9052;SDS011;4561;47.450;7.516;2024-03-08T02:30:24;46.53;;;33.73;;
9052;SDS011;4561;47.450;7.516;2024-03-08T02:33:49;49.03;;;35.97;;
9052;SDS011;4561;47.450;7.516;2024-03-08T02:37:13;57.53;;;38.03;;
9052;SDS011;4561;47.450;7.516;2024-03-08T02:40:33;53.30;;;38.70;;
9052;SDS011;4561;47.450;7.516;2024-03-08T02:43:53;52.00;;;37.97;;
9052;SDS011;4561;47.450;7.516;2024-03-08T02:47:15;52.90;;;38.20;;
9052;SDS011;4561;47.450;7.516;2024-03-08T02:50:35;54.90;;;40.07;;
9052;SDS011;4561;47.450;7.516;2024-03-08T02:53:56;54.87;;;37.67;;
9052;SDS011;4561;47.450;7.516;2024-03-08T02:57:17;53.27;;;37.60;;
9052;SDS011;4561;47.450;7.516;2024-03-08T03:00:38;53.97;;;37.27;;
9052;SDS011;4561;47.450;7.516;2024-03-08T03:03:59;53.03;;;37.13;;
9052;SDS011;4561;47.450;7.516;2024-03-08T03:07:19;51.90;;;36.23;;
9052;SDS011;4561;47.450;7.516;2024-03-08T03:10:40;51.13;;;37.30;;
9052;SDS011;4561;47.450;7.516;2024-03-08T03:14:00;49.87;;;36.40;;
9052;SDS011;4561;47.450;7.516;2024-03-08T03:17:24;51.00;;;36.93;;
9052;SDS011;4561;47.450;7.516;2024-03-08T03:20:50;51.53;;;36.87;;
9052;SDS011;4561;47.450;7.516;2024-03-08T03:24:10;52.87;;;37.13;;
9052;SDS011;4561;47.450;7.516;2024-03-08T03:27:32;48.40;;;35.33;;
9052;SDS011;4561;47.450;7.516;2024-03-08T03:30:52;50.70;;;37.07;;
9052;SDS011;4561;47.450;7.516;2024-03-08T03:34:13;51.53;;;36.20;;
9052;SDS011;4561;47.450;7.516;2024-03-08T03:37:35;51.27;;;35.90;;
9052;SDS011;4561;47.450;7.516;2024-03-08T03:40:59;49.00;;;35.43;;
9052;SDS011;4561;47.450;7.516;2024-03-08T03:44:30;49.07;;;35.57;;
9052;SDS011;4561;47.450;7.516;2024-03-08T03:47:52;48.00;;;35.17;;
9052;SDS011;4561;47.450;7.516;2024-03-08T03:51:13;52.50;;;35.20;;
9052;SDS011;4561;47.450;7.516;2024-03-08T03:54:35;46.83;;;33.23;;
9052;SDS011;4561;47.450;7.516;2024-03-08T03:57:56;49.87;;;35.37;;
9052;SDS011;4561;47.450;7.516;2024-03-08T04:01:16;51.07;;;35.70;;
9052;SDS011;4561;47.450;7.516;2024-03-08T04:04:36;47.40;;;33.13;;
9052;SDS011;4561;47.450;7.516;2024-03-08T04:07:57;45.50;;;34.07;;
9052;SDS011;4561;47.450;7.516;2024-03-08T04:11:17;43.33;;;32.70;;
9052;SDS011;4561;47.450;7.516;2024-03-08T04:14:40;47.33;;;34.37;;
9052;SDS011;4561;47.450;7.516;2024-03-08T04:18:01;46.43;;;34.03;;
9052;SDS011;4561;47.450;7.516;2024-03-08T04:21:25;46.73;;;34.07;;
9052;SDS011;4561;47.450;7.516;2024-03-08T04:24:48;45.37;;;31.67;;
9052;SDS011;4561;47.450;7.516;2024-03-08T04:28:08;46.03;;;34.10;;
9052;SDS011;4561;47.450;7.516;2024-03-08T04:31:31;46.80;;;34.33;;
9052;SDS011;4561;47.450;7.516;2024-03-08T04:34:52;45.37;;;32.73;;
9052;SDS011;4561;47.450;7.516;2024-03-08T04:38:15;45.87;;;32.57;;
9052;SDS011;4561;47.450;7.516;2024-03-08T04:41:35;45.30;;;33.57;;
9052;SDS011;4561;47.450;7.516;2024-03-08T04:44:57;43.60;;;31.10;;
9052;SDS011;4561;47.450;7.516;2024-03-08T04:48:17;42.17;;;30.60;;
9052;SDS011;4561;47.450;7.516;2024-03-08T04:51:38;44.37;;;32.37;;
9052;SDS011;4561;47.450;7.516;2024-03-08T04:54:58;39.80;;;30.07;;
9052;SDS011;4561;47.450;7.516;2024-03-08T04:58:18;40.93;;;31.17;;
9052;SDS011;4561;47.450;7.516;2024-03-08T05:01:40;43.57;;;33.03;;
9052;SDS011;4561;47.450;7.516;2024-03-08T05:05:01;43.47;;;31.00;;
9052;SDS011;4561;47.450;7.516;2024-03-08T05:08:26;41.40;;;30.93;;
9052;SDS011;4561;47.450;7.516;2024-03-08T05:11:46;42.07;;;31.57;;
9052;SDS011;4561;47.450;7.516;2024-03-08T05:15:07;41.03;;;29.97;;
9052;SDS011;4561;47.450;7.516;2024-03-08T05:18:28;41.93;;;30.27;;
9052;SDS011;4561;47.450;7.516;2024-03-08T05:21:49;43.00;;;30.57;;
9052;SDS011;4561;47.450;7.516;2024-03-08T05:25:12;41.27;;;29.50;;
9052;SDS011;4561;47.450;7.516;2024-03-08T05:28:34;38.23;;;29.20;;
9052;SDS011;4561;47.450;7.516;2024-03-08T05:31:57;38.50;;;28.30;;
9052;SDS011;4561;47.450;7.516;2024-03-08T05:35:18;54.07;;;37.03;;
9052;SDS011;4561;47.450;7.516;2024-03-08T05:38:38;44.90;;;31.30;;
9052;SDS011;4561;47.450;7.516;2024-03-08T05:41:58;45.00;;;32.03;;
9052;SDS011;4561;47.450;7.516;2024-03-08T05:45:19;46.03;;;33.20;;
9052;SDS011;4561;47.450;7.516;2024-03-08T05:48:41;64.23;;;41.93;;
9052;SDS011;4561;47.450;7.516;2024-03-08T05:52:04;46.03;;;32.10;;
9052;SDS011;4561;47.450;7.516;2024-03-08T05:55:24;37.60;;;28.43;;
9052;SDS011;4561;47.450;7.516;2024-03-08T05:58:45;38.27;;;28.63;;
9052;SDS011;4561;47.450;7.516;2024-03-08T06:02:10;39.67;;;28.87;;
9052;SDS011;4561;47.450;7.516;2024-03-08T06:05:30;39.07;;;28.97;;
9052;SDS011;4561;47.450;7.516;2024-03-08T06:08:50;38.80;;;29.20;;
9052;SDS011;4561;47.450;7.516;2024-03-08T06:12:13;38.70;;;27.83;;
9052;SDS011;4561;47.450;7.516;2024-03-08T06:15:38;34.83;;;26.80;;
9052;SDS011;4561;47.450;7.516;2024-03-08T06:18:59;36.67;;;27.13;;
9052;SDS011;4561;47.450;7.516;2024-03-08T06:22:22;36.97;;;27.90;;
9052;SDS011;4561;47.450;7.516;2024-03-08T06:25:43;36.77;;;27.73;;
9052;SDS011;4561;47.450;7.516;2024-03-08T06:29:04;35.33;;;26.53;;
9052;SDS011;4561;47.450;7.516;2024-03-08T06:32:26;37.67;;;25.90;;
9052;SDS011;4561;47.450;7.516;2024-03-08T06:35:47;32.80;;;25.83;;
9052;SDS011;4561;47.450;7.516;2024-03-08T06:39:07;33.27;;;25.50;;
9052;SDS011;4561;47.450;7.516;2024-03-08T06:42:30;32.87;;;25.83;;
9052;SDS011;4561;47.450;7.516;2024-03-08T06:45:55;31.30;;;24.60;;
9052;SDS011;4561;47.450;7.516;2024-03-08T06:49:15;32.33;;;25.13;;
9052;SDS011;4561;47.450;7.516;2024-03-08T06:52:35;29.63;;;22.50;;
9052;SDS011;4561;47.450;7.516;2024-03-08T06:55:56;32.10;;;22.93;;
9052;SDS011;4561;47.450;7.516;2024-03-08T06:59:17;27.63;;;21.77;;
9052;SDS011;4561;47.450;7.516;2024-03-08T07:02:38;26.53;;;21.30;;
9052;SDS011;4561;47.450;7.516;2024-03-08T07:05:59;25.40;;;21.53;;
9052;SDS011;4561;47.450;7.516;2024-03-08T07:09:23;25.60;;;20.53;;
9052;SDS011;4561;47.450;7.516;2024-03-08T07:12:46;24.70;;;18.93;;
9052;SDS011;4561;47.450;7.516;2024-03-08T07:16:07;24.17;;;18.70;;
9052;SDS011;4561;47.450;7.516;2024-03-08T07:19:27;24.53;;;19.93;;
9052;SDS011;4561;47.450;7.516;2024-03-08T07:22:48;26.27;;;20.03;;
9052;SDS011;4561;47.450;7.516;2024-03-08T07:26:17;22.93;;;18.70;;
9052;SDS011;4561;47.450;7.516;2024-03-08T07:29:39;22.43;;;18.53;;
9052;SDS011;4561;47.450;7.516;2024-03-08T07:33:00;25.07;;;19.17;;
9052;SDS011;4561;47.450;7.516;2024-03-08T07:36:22;25.30;;;19.47;;
9052;SDS011;4561;47.450;7.516;2024-03-08T07:39:42;22.13;;;18.83;;
9052;SDS011;4561;47.450;7.516;2024-03-08T07:43:03;21.60;;;18.83;;
9052;SDS011;4561;47.450;7.516;2024-03-08T07:46:23;20.63;;;17.93;;
9052;SDS011;4561;47.450;7.516;2024-03-08T07:49:49;24.30;;;19.47;;
9052;SDS011;4561;47.450;7.516;2024-03-08T07:53:09;21.20;;;18.00;;
9052;SDS011;4561;47.450;7.516;2024-03-08T07:56:30;21.57;;;18.10;;
9052;SDS011;4561;47.450;7.516;2024-03-08T07:59:50;22.43;;;19.03;;
9052;SDS011;4561;47.450;7.516;2024-03-08T08:03:11;21.33;;;18.43;;
9052;SDS011;4561;47.450;7.516;2024-03-08T08:06:32;20.03;;;17.93;;
9052;SDS011;4561;47.450;7.516;2024-03-08T08:09:57;21.70;;;17.53;;
9052;SDS011;4561;47.450;7.516;2024-03-08T08:13:19;19.33;;;17.00;;
9052;SDS011;4561;47.450;7.516;2024-03-08T08:16:39;20.10;;;17.23;;
9052;SDS011;4561;47.450;7.516;2024-03-08T08:20:02;19.87;;;17.77;;
9052;SDS011;4561;47.450;7.516;2024-03-08T08:23:25;18.70;;;16.60;;
9052;SDS011;4561;47.450;7.516;2024-03-08T08:26:46;19.50;;;17.40;;
9052;SDS011;4561;47.450;7.516;2024-03-08T08:30:06;18.50;;;16.60;;
9052;SDS011;4561;47.450;7.516;2024-03-08T08:33:28;18.90;;;16.90;;
9052;SDS011;4561;47.450;7.516;2024-03-08T08:36:50;20.40;;;18.27;;
9052;SDS011;4561;47.450;7.516;2024-03-08T08:40:11;18.37;;;16.43;;
9052;SDS011;4561;47.450;7.516;2024-03-08T08:43:34;18.50;;;16.17;;
9052;SDS011;4561;47.450;7.516;2024-03-08T08:46:57;16.93;;;15.23;;
9052;SDS011;4561;47.450;7.516;2024-03-08T08:50:18;17.63;;;15.83;;
9052;SDS011;4561;47.450;7.516;2024-03-08T08:53:45;17.27;;;15.10;;
9052;SDS011;4561;47.450;7.516;2024-03-08T08:57:07;17.73;;;15.90;;
9052;SDS011;4561;47.450;7.516;2024-03-08T09:00:28;15.57;;;13.90;;
9052;SDS011;4561;47.450;7.516;2024-03-08T09:03:50;19.20;;;15.53;;
9052;SDS011;4561;47.450;7.516;2024-03-08T09:07:14;18.13;;;16.23;;
9052;SDS011;4561;47.450;7.516;2024-03-08T09:10:35;18.03;;;16.13;;
9052;SDS011;4561;47.450;7.516;2024-03-08T09:13:57;17.77;;;15.97;;
9052;SDS011;4561;47.450;7.516;2024-03-08T09:17:18;17.90;;;15.80;;
9052;SDS011;4561;47.450;7.516;2024-03-08T09:20:40;17.33;;;15.53;;
9052;SDS011;4561;47.450;7.516;2024-03-08T09:24:04;18.90;;;15.90;;
9052;SDS011;4561;47.450;7.516;2024-03-08T09:27:24;17.83;;;15.97;;
9052;SDS011;4561;47.450;7.516;2024-03-08T09:30:45;17.40;;;15.67;;
9052;SDS011;4561;47.450;7.516;2024-03-08T09:34:06;17.27;;;15.47;;
9052;SDS011;4561;47.450;7.516;2024-03-08T09:37:28;16.60;;;14.90;;
9052;SDS011;4561;47.450;7.516;2024-03-08T09:40:48;19.03;;;16.30;;
9052;SDS011;4561;47.450;7.516;2024-03-08T09:44:11;16.90;;;15.10;;
9052;SDS011;4561;47.450;7.516;2024-03-08T09:47:33;16.47;;;14.80;;
9052;SDS011;4561;47.450;7.516;2024-03-08T09:50:54;17.70;;;15.80;;
9052;SDS011;4561;47.450;7.516;2024-03-08T09:54:16;17.27;;;15.47;;
9052;SDS011;4561;47.450;7.516;2024-03-08T09:57:39;16.20;;;14.53;;
9052;SDS011;4561;47.450;7.516;2024-03-08T10:00:59;17.23;;;15.43;;
9052;SDS011;4561;47.450;7.516;2024-03-08T10:04:27;19.10;;;17.10;;
9052;SDS011;4561;47.450;7.516;2024-03-08T10:07:50;16.97;;;15.17;;
9052;SDS011;4561;47.450;7.516;2024-03-08T10:11:11;18.13;;;15.20;;
9052;SDS011;4561;47.450;7.516;2024-03-08T10:14:31;20.03;;;16.17;;
9052;SDS011;4561;47.450;7.516;2024-03-08T10:17:58;16.60;;;15.00;;
9052;SDS011;4561;47.450;7.516;2024-03-08T10:21:19;17.40;;;15.60;;
9052;SDS011;4561;47.450;7.516;2024-03-08T10:24:45;18.00;;;16.13;;
9052;SDS011;4561;47.450;7.516;2024-03-08T10:28:06;17.27;;;15.53;;
9052;SDS011;4561;47.450;7.516;2024-03-08T10:31:27;16.73;;;15.07;;
9052;SDS011;4561;47.450;7.516;2024-03-08T10:34:47;18.35;;;14.18;;
9052;SDS011;4561;47.450;7.516;2024-03-08T10:38:10;15.93;;;14.45;;
9052;SDS011;4561;47.450;7.516;2024-03-08T10:41:33;16.50;;;14.80;;
9052;SDS011;4561;47.450;7.516;2024-03-08T10:45:03;16.77;;;15.27;;
9052;SDS011;4561;47.450;7.516;2024-03-08T10:48:28;17.73;;;15.85;;
9052;SDS011;4561;47.450;7.516;2024-03-08T10:51:55;17.02;;;15.52;;
9052;SDS011;4561;47.450;7.516;2024-03-08T10:55:17;16.70;;;15.13;;
9052;SDS011;4561;47.450;7.516;2024-03-08T10:58:39;16.65;;;15.05;;
9052;SDS011;4561;47.450;7.516;2024-03-08T11:02:00;16.67;;;15.25;;
9052;SDS011;4561;47.450;7.516;2024-03-08T11:05:40;16.42;;;14.85;;
9052;SDS011;4561;47.450;7.516;2024-03-08T11:09:01;16.75;;;15.25;;
9052;SDS011;4561;47.450;7.516;2024-03-08T11:12:28;16.73;;;15.20;;
9052;SDS011;4561;47.450;7.516;2024-03-08T11:15:54;16.98;;;15.45;;
9052;SDS011;4561;47.450;7.516;2024-03-08T11:22:36;16.63;;;15.23;;
9052;SDS011;4561;47.450;7.516;2024-03-08T11:25:58;16.95;;;15.45;;
9052;SDS011;4561;47.450;7.516;2024-03-08T11:29:37;16.30;;;14.82;;
9052;SDS011;4561;47.450;7.516;2024-03-08T11:33:02;15.27;;;13.88;;
9052;SDS011;4561;47.450;7.516;2024-03-08T11:36:23;15.30;;;13.95;;
9052;SDS011;4561;47.450;7.516;2024-03-08T11:39:48;16.77;;;15.27;;
9052;SDS011;4561;47.450;7.516;2024-03-08T11:43:11;15.55;;;14.10;;
9052;SDS011;4561;47.450;7.516;2024-03-08T11:46:34;15.98;;;14.45;;
9052;SDS011;4561;47.450;7.516;2024-03-08T11:49:54;15.85;;;14.35;;
9052;SDS011;4561;47.450;7.516;2024-03-08T11:53:15;15.93;;;14.23;;
9052;SDS011;4561;47.450;7.516;2024-03-08T11:56:36;15.60;;;14.10;;
9052;SDS011;4561;47.450;7.516;2024-03-08T11:59:57;16.27;;;14.17;;
9052;SDS011;4561;47.450;7.516;2024-03-08T12:03:18;16.10;;;14.53;;
9052;SDS011;4561;47.450;7.516;2024-03-08T12:06:39;14.80;;;13.30;;
9052;SDS011;4561;47.450;7.516;2024-03-08T12:10:15;14.47;;;12.97;;
9052;SDS011;4561;47.450;7.516;2024-03-08T12:13:41;16.77;;;12.40;;
9052;SDS011;4561;47.450;7.516;2024-03-08T12:17:01;13.67;;;12.10;;
9052;SDS011;4561;47.450;7.516;2024-03-08T12:20:23;13.67;;;12.23;;
9052;SDS011;4561;47.450;7.516;2024-03-08T12:24:06;11.97;;;10.77;;
9052;SDS011;4561;47.450;7.516;2024-03-08T12:27:29;14.47;;;11.40;;
9052;SDS011;4561;47.450;7.516;2024-03-08T12:30:50;13.63;;;11.97;;
9052;SDS011;4561;47.450;7.516;2024-03-08T12:34:14;13.17;;;11.27;;
9052;SDS011;4561;47.450;7.516;2024-03-08T12:37:34;13.00;;;11.67;;
9052;SDS011;4561;47.450;7.516;2024-03-08T12:40:55;13.40;;;12.00;;
9052;SDS011;4561;47.450;7.516;2024-03-08T12:44:21;13.27;;;11.80;;
9052;SDS011;4561;47.450;7.516;2024-03-08T12:47:45;13.97;;;11.27;;
9052;SDS011;4561;47.450;7.516;2024-03-08T12:51:05;15.50;;;11.80;;
9052;SDS011;4561;47.450;7.516;2024-03-08T12:54:29;11.53;;;10.33;;
9052;SDS011;4561;47.450;7.516;2024-03-08T12:57:51;17.40;;;11.93;;
9052;SDS011;4561;47.450;7.516;2024-03-08T13:01:13;15.87;;;11.77;;
9052;SDS011;4561;47.450;7.516;2024-03-08T13:04:33;13.23;;;11.40;;
9052;SDS011;4561;47.450;7.516;2024-03-08T13:07:56;13.90;;;12.13;;
9052;SDS011;4561;47.450;7.516;2024-03-08T13:11:19;12.93;;;10.93;;
9052;SDS011;4561;47.450;7.516;2024-03-08T13:14:42;13.33;;;10.83;;
9052;SDS011;4561;47.450;7.516;2024-03-08T13:18:03;12.97;;;11.60;;
9052;SDS011;4561;47.450;7.516;2024-03-08T13:21:25;13.33;;;11.80;;
9052;SDS011;4561;47.450;7.516;2024-03-08T13:24:46;13.90;;;12.27;;
9052;SDS011;4561;47.450;7.516;2024-03-08T13:28:06;13.07;;;11.57;;
9052;SDS011;4561;47.450;7.516;2024-03-08T13:31:26;13.83;;;11.03;;
9052;SDS011;4561;47.450;7.516;2024-03-08T13:34:47;13.73;;;11.17;;
9052;SDS011;4561;47.450;7.516;2024-03-08T13:38:07;11.90;;;10.67;;
9052;SDS011;4561;47.450;7.516;2024-03-08T13:41:29;15.13;;;11.17;;
9052;SDS011;4561;47.450;7.516;2024-03-08T13:44:49;12.40;;;9.70;;
9052;SDS011;4561;47.450;7.516;2024-03-08T13:48:12;12.33;;;10.87;;
9052;SDS011;4561;47.450;7.516;2024-03-08T13:51:36;12.73;;;10.33;;
9052;SDS011;4561;47.450;7.516;2024-03-08T13:54:56;12.13;;;10.40;;
9052;SDS011;4561;47.450;7.516;2024-03-08T13:58:17;12.07;;;10.77;;
9052;SDS011;4561;47.450;7.516;2024-03-08T14:01:37;12.67;;;11.20;;
9052;SDS011;4561;47.450;7.516;2024-03-08T14:04:58;11.97;;;10.70;;
9052;SDS011;4561;47.450;7.516;2024-03-08T14:08:21;14.53;;;10.63;;
9052;SDS011;4561;47.450;7.516;2024-03-08T14:11:42;11.43;;;10.20;;
9052;SDS011;4561;47.450;7.516;2024-03-08T14:15:04;12.43;;;11.00;;
9052;SDS011;4561;47.450;7.516;2024-03-08T14:18:26;13.80;;;11.97;;
9052;SDS011;4561;47.450;7.516;2024-03-08T14:21:49;13.90;;;12.20;;
9052;SDS011;4561;47.450;7.516;2024-03-08T14:25:13;14.00;;;12.50;;
9052;SDS011;4561;47.450;7.516;2024-03-08T14:28:37;12.43;;;11.13;;
9052;SDS011;4561;47.450;7.516;2024-03-08T14:31:58;14.00;;;11.30;;
9052;SDS011;4561;47.450;7.516;2024-03-08T14:35:23;13.47;;;11.47;;
9052;SDS011;4561;47.450;7.516;2024-03-08T14:38:44;13.43;;;12.03;;
9052;SDS011;4561;47.450;7.516;2024-03-08T14:42:05;14.57;;;12.03;;
9052;SDS011;4561;47.450;7.516;2024-03-08T14:45:28;13.57;;;11.97;;
9052;SDS011;4561;47.450;7.516;2024-03-08T14:48:51;18.70;;;11.90;;
9052;SDS011;4561;47.450;7.516;2024-03-08T14:52:12;14.07;;;12.37;;
9052;SDS011;4561;47.450;7.516;2024-03-08T14:55:50;13.13;;;11.17;;
9052;SDS011;4561;47.450;7.516;2024-03-08T14:59:11;13.23;;;11.57;;
9052;SDS011;4561;47.450;7.516;2024-03-08T15:02:31;13.97;;;11.60;;
9052;SDS011;4561;47.450;7.516;2024-03-08T15:05:56;13.33;;;11.93;;
9052;SDS011;4561;47.450;7.516;2024-03-08T15:09:16;14.13;;;11.43;;
9052;SDS011;4561;47.450;7.516;2024-03-08T15:12:40;13.90;;;11.87;;
9052;SDS011;4561;47.450;7.516;2024-03-08T15:16:00;13.20;;;11.80;;
9052;SDS011;4561;47.450;7.516;2024-03-08T15:19:20;14.47;;;12.10;;
9052;SDS011;4561;47.450;7.516;2024-03-08T15:22:47;16.93;;;11.20;;
9052;SDS011;4561;47.450;7.516;2024-03-08T15:26:10;12.80;;;11.37;;
9052;SDS011;4561;47.450;7.516;2024-03-08T15:29:31;13.37;;;11.43;;
9052;SDS011;4561;47.450;7.516;2024-03-08T15:32:52;14.40;;;12.13;;
9052;SDS011;4561;47.450;7.516;2024-03-08T15:36:17;13.37;;;11.97;;
9052;SDS011;4561;47.450;7.516;2024-03-08T15:39:40;14.00;;;11.70;;
9052;SDS011;4561;47.450;7.516;2024-03-08T15:43:01;13.20;;;11.80;;
9052;SDS011;4561;47.450;7.516;2024-03-08T15:46:21;17.23;;;13.27;;
9052;SDS011;4561;47.450;7.516;2024-03-08T15:49:42;14.17;;;12.17;;
9052;SDS011;4561;47.450;7.516;2024-03-08T15:53:04;20.27;;;12.67;;
9052;SDS011;4561;47.450;7.516;2024-03-08T15:56:25;15.23;;;12.93;;
9052;SDS011;4561;47.450;7.516;2024-03-08T15:59:48;17.17;;;13.00;;
9052;SDS011;4561;47.450;7.516;2024-03-08T16:03:08;15.77;;;12.27;;
9052;SDS011;4561;47.450;7.516;2024-03-08T16:06:31;15.13;;;12.30;;
9052;SDS011;4561;47.450;7.516;2024-03-08T16:09:51;15.23;;;12.20;;
9052;SDS011;4561;47.450;7.516;2024-03-08T16:13:12;15.83;;;12.70;;
9052;SDS011;4561;47.450;7.516;2024-03-08T16:16:33;15.33;;;12.87;;
9052;SDS011;4561;47.450;7.516;2024-03-08T16:19:53;15.40;;;12.40;;
9052;SDS011;4561;47.450;7.516;2024-03-08T16:23:16;15.53;;;11.93;;
9052;SDS011;4561;47.450;7.516;2024-03-08T16:26:38;14.13;;;11.90;;
9052;SDS011;4561;47.450;7.516;2024-03-08T16:29:59;18.63;;;14.23;;
9052;SDS011;4561;47.450;7.516;2024-03-08T16:33:22;13.63;;;11.87;;
9052;SDS011;4561;47.450;7.516;2024-03-08T16:36:45;14.63;;;12.50;;
9052;SDS011;4561;47.450;7.516;2024-03-08T16:40:09;16.83;;;12.73;;
9052;SDS011;4561;47.450;7.516;2024-03-08T16:43:35;14.70;;;11.37;;
9052;SDS011;4561;47.450;7.516;2024-03-08T16:46:59;13.93;;;11.93;;
9052;SDS011;4561;47.450;7.516;2024-03-08T16:50:19;12.93;;;10.40;;
9052;SDS011;4561;47.450;7.516;2024-03-08T16:53:42;14.13;;;11.90;;
9052;SDS011;4561;47.450;7.516;2024-03-08T16:57:03;13.80;;;10.30;;
9052;SDS011;4561;47.450;7.516;2024-03-08T17:00:33;11.87;;;9.40;;
9052;SDS011;4561;47.450;7.516;2024-03-08T17:03:53;11.60;;;8.77;;
9052;SDS011;4561;47.450;7.516;2024-03-08T17:07:18;10.87;;;8.67;;
9052;SDS011;4561;47.450;7.516;2024-03-08T17:10:41;11.77;;;8.57;;
9052;SDS011;4561;47.450;7.516;2024-03-08T17:14:02;9.67;;;8.03;;
9052;SDS011;4561;47.450;7.516;2024-03-08T17:17:24;9.67;;;7.13;;
9052;SDS011;4561;47.450;7.516;2024-03-08T17:20:45;9.07;;;8.07;;
9052;SDS011;4561;47.450;7.516;2024-03-08T17:24:08;8.20;;;7.37;;
9052;SDS011;4561;47.450;7.516;2024-03-08T17:27:31;7.70;;;6.73;;
9052;SDS011;4561;47.450;7.516;2024-03-08T17:30:52;8.37;;;6.77;;
9052;SDS011;4561;47.450;7.516;2024-03-08T17:34:15;8.87;;;7.97;;
9052;SDS011;4561;47.450;7.516;2024-03-08T17:37:38;8.70;;;7.67;;
9052;SDS011;4561;47.450;7.516;2024-03-08T17:41:02;10.67;;;8.07;;
9052;SDS011;4561;47.450;7.516;2024-03-08T17:44:25;9.37;;;8.30;;
9052;SDS011;4561;47.450;7.516;2024-03-08T17:47:46;9.63;;;8.27;;
9052;SDS011;4561;47.450;7.516;2024-03-08T17:51:08;9.67;;;8.20;;
9052;SDS011;4561;47.450;7.516;2024-03-08T17:54:33;8.73;;;7.83;;
9052;SDS011;4561;47.450;7.516;2024-03-08T17:57:54;10.87;;;8.27;;
9052;SDS011;4561;47.450;7.516;2024-03-08T18:01:14;11.30;;;9.40;;
9052;SDS011;4561;47.450;7.516;2024-03-08T18:04:37;10.67;;;8.63;;
9052;SDS011;4561;47.450;7.516;2024-03-08T18:08:01;9.87;;;8.87;;
9052;SDS011;4561;47.450;7.516;2024-03-08T18:11:21;11.93;;;9.73;;
9052;SDS011;4561;47.450;7.516;2024-03-08T18:14:42;12.37;;;9.00;;
9052;SDS011;4561;47.450;7.516;2024-03-08T18:18:02;11.07;;;9.10;;
9052;SDS011;4561;47.450;7.516;2024-03-08T18:21:25;10.73;;;9.63;;
9052;SDS011;4561;47.450;7.516;2024-03-08T18:24:48;10.33;;;9.23;;
9052;SDS011;4561;47.450;7.516;2024-03-08T18:28:11;11.20;;;9.90;;
9052;SDS011;4561;47.450;7.516;2024-03-08T18:31:32;13.43;;;10.30;;
9052;SDS011;4561;47.450;7.516;2024-03-08T18:34:54;11.23;;;10.10;;
9052;SDS011;4561;47.450;7.516;2024-03-08T18:38:15;12.50;;;10.90;;
9052;SDS011;4561;47.450;7.516;2024-03-08T18:41:38;14.73;;;11.63;;
9052;SDS011;4561;47.450;7.516;2024-03-08T18:45:01;13.27;;;11.53;;
9052;SDS011;4561;47.450;7.516;2024-03-08T18:48:29;11.17;;;9.97;;
9052;SDS011;4561;47.450;7.516;2024-03-08T18:51:50;14.23;;;10.90;;
9052;SDS011;4561;47.450;7.516;2024-03-08T18:55:14;12.13;;;10.77;;
9052;SDS011;4561;47.450;7.516;2024-03-08T18:58:41;13.27;;;11.83;;
9052;SDS011;4561;47.450;7.516;2024-03-08T19:02:01;14.67;;;11.73;;
9052;SDS011;4561;47.450;7.516;2024-03-08T19:05:25;14.60;;;12.30;;
9052;SDS011;4561;47.450;7.516;2024-03-08T19:08:46;15.47;;;13.37;;
9052;SDS011;4561;47.450;7.516;2024-03-08T19:12:14;14.30;;;12.70;;
9052;SDS011;4561;47.450;7.516;2024-03-08T19:15:34;14.57;;;12.90;;
9052;SDS011;4561;47.450;7.516;2024-03-08T19:18:55;15.17;;;13.03;;
9052;SDS011;4561;47.450;7.516;2024-03-08T19:22:15;14.87;;;13.37;;
9052;SDS011;4561;47.450;7.516;2024-03-08T19:25:38;14.97;;;13.37;;
9052;SDS011;4561;47.450;7.516;2024-03-08T19:29:01;15.27;;;13.67;;
9052;SDS011;4561;47.450;7.516;2024-03-08T19:32:25;15.53;;;13.43;;
9052;SDS011;4561;47.450;7.516;2024-03-08T19:35:46;15.80;;;14.10;;
9052;SDS011;4561;47.450;7.516;2024-03-08T19:39:06;16.50;;;13.93;;
9052;SDS011;4561;47.450;7.516;2024-03-08T19:42:30;16.43;;;14.73;;
9052;SDS011;4561;47.450;7.516;2024-03-08T19:45:50;15.97;;;14.30;;
9052;SDS011;4561;47.450;7.516;2024-03-08T19:49:14;21.67;;;17.73;;
9052;SDS011;4561;47.450;7.516;2024-03-08T19:52:39;18.40;;;15.17;;
9052;SDS011;4561;47.450;7.516;2024-03-08T19:55:59;18.80;;;15.87;;
9052;SDS011;4561;47.450;7.516;2024-03-08T19:59:21;17.97;;;15.43;;
9052;SDS011;4561;47.450;7.516;2024-03-08T20:02:45;22.17;;;17.33;;
9052;SDS011;4561;47.450;7.516;2024-03-08T20:06:06;18.93;;;15.93;;
9052;SDS011;4561;47.450;7.516;2024-03-08T20:09:29;19.47;;;16.00;;
9052;SDS011;4561;47.450;7.516;2024-03-08T20:12:51;17.70;;;15.90;;
9052;SDS011;4561;47.450;7.516;2024-03-08T20:16:16;17.60;;;15.53;;
9052;SDS011;4561;47.450;7.516;2024-03-08T20:19:38;20.20;;;16.67;;
9052;SDS011;4561;47.450;7.516;2024-03-08T20:23:00;16.97;;;15.17;;
9052;SDS011;4561;47.450;7.516;2024-03-08T20:26:21;18.73;;;16.20;;